Aviation Digital Data Service (ADDS)

Output produced by METARs form (1930 UTC 31 January 2023)
found at http://www.aviationweather.gov/metar/data/
 
VTUD 311500Z 15002KT 7000 NSC 18/12 Q1012 NOSIG
VTUD 311400Z 00000KT 7000 NSC 18/10 Q1012 NOSIG
VTUD 311300Z 00000KT 7000 NSC 21/11 Q1011 NOSIG
VTUD 311200Z 00000KT 7000 NSC 22/10 Q1010 NOSIG
VTUD 311100Z 14003KT 7000 NSC 27/09 Q1010 NOSIG
VTUD 311000Z VRB02KT 7000 NSC 29/09 Q1010 NOSIG
VTUD 310900Z VRB04KT 7000 NSC 29/08 Q1010 NOSIG
VTUD 310800Z VRB03KT 7000 NSC 28/08 Q1011 NOSIG
VTUD 310700Z VRB02KT 7000 NSC 27/08 Q1012 NOSIG
VTUD 310600Z 30005KT 260V350 7000 NSC 25/07 Q1014 NOSIG
VTUD 310500Z VRB03KT 7000 NSC 25/08 Q1015 NOSIG
VTUD 310400Z VRB02KT 6000 NSC 21/08 Q1016 NOSIG
VTUD 310300Z VRB02KT 6000 NSC 19/10 Q1017 NOSIG
VTUD 310200Z VRB02KT 4000 BR NSC 15/11 Q1017 BECMG TL0300 6000
VTUD 310100Z 00000KT 4000 BR NSC 12/11 Q1016 BECMG TL0300 6000
VTUD 310000Z 00000KT 6000 NSC 10/09 Q1015 NOSIG
VTUD 302300Z 00000KT 6000 NSC 11/10 Q1015 NOSIG
VTUD 302200Z 00000KT 6000 NSC 11/10 Q1014 NOSIG
VTUD 302100Z 00000KT 7000 NSC 11/10 Q1014 NOSIG
TAF VTUD 311700Z 3118/0118 08005KT 8000 FEW030